sensor_id;sensor_type;location;lat;lon;timestamp;temperature;humidity
66928;DHT22;59882;45.624;11.698;2023-07-24T00:02:14;26.10;71.30
66928;DHT22;59882;45.624;11.698;2023-07-24T00:04:40;26.10;71.40
66928;DHT22;59882;45.624;11.698;2023-07-24T00:07:06;26.10;71.10
66928;DHT22;59882;45.624;11.698;2023-07-24T00:09:31;26.10;71.10
66928;DHT22;59882;45.624;11.698;2023-07-24T00:11:57;26.00;71.10
66928;DHT22;59882;45.624;11.698;2023-07-24T00:14:23;26.00;70.70
66928;DHT22;59882;45.624;11.698;2023-07-24T00:16:49;26.00;70.60
66928;DHT22;59882;45.624;11.698;2023-07-24T00:19:14;26.10;70.70
66928;DHT22;59882;45.624;11.698;2023-07-24T00:21:40;26.10;70.70
66928;DHT22;59882;45.624;11.698;2023-07-24T00:24:06;26.10;70.80
66928;DHT22;59882;45.624;11.698;2023-07-24T00:26:31;26.00;70.60
66928;DHT22;59882;45.624;11.698;2023-07-24T00:28:57;26.00;70.50
66928;DHT22;59882;45.624;11.698;2023-07-24T00:31:22;26.00;70.10
66928;DHT22;59882;45.624;11.698;2023-07-24T00:33:48;26.00;70.50
66928;DHT22;59882;45.624;11.698;2023-07-24T00:36:13;26.00;70.50
66928;DHT22;59882;45.624;11.698;2023-07-24T00:38:39;25.90;70.80
66928;DHT22;59882;45.624;11.698;2023-07-24T00:41:05;25.90;71.10
66928;DHT22;59882;45.624;11.698;2023-07-24T00:43:31;25.80;70.60
66928;DHT22;59882;45.624;11.698;2023-07-24T00:45:57;25.80;70.60
66928;DHT22;59882;45.624;11.698;2023-07-24T00:48:23;25.80;71.00
66928;DHT22;59882;45.624;11.698;2023-07-24T00:50:48;25.70;71.50
66928;DHT22;59882;45.624;11.698;2023-07-24T00:53:15;25.70;71.70
66928;DHT22;59882;45.624;11.698;2023-07-24T00:55:42;25.60;71.10
66928;DHT22;59882;45.624;11.698;2023-07-24T00:58:10;25.60;71.10
66928;DHT22;59882;45.624;11.698;2023-07-24T01:00:40;25.50;71.70
66928;DHT22;59882;45.624;11.698;2023-07-24T01:03:06;25.50;71.30
66928;DHT22;59882;45.624;11.698;2023-07-24T01:05:32;25.40;71.20
66928;DHT22;59882;45.624;11.698;2023-07-24T01:07:58;25.40;71.10
66928;DHT22;59882;45.624;11.698;2023-07-24T01:10:24;25.40;70.80
66928;DHT22;59882;45.624;11.698;2023-07-24T01:12:58;25.40;70.50
66928;DHT22;59882;45.624;11.698;2023-07-24T01:15:31;25.40;70.40
66928;DHT22;59882;45.624;11.698;2023-07-24T01:18:00;25.50;70.20
66928;DHT22;59882;45.624;11.698;2023-07-24T01:20:29;25.50;70.20
66928;DHT22;59882;45.624;11.698;2023-07-24T01:25:35;25.50;70.30
66928;DHT22;59882;45.624;11.698;2023-07-24T01:28:07;25.40;70.20
66928;DHT22;59882;45.624;11.698;2023-07-24T01:30:33;25.30;70.00
66928;DHT22;59882;45.624;11.698;2023-07-24T01:32:59;25.30;70.00
66928;DHT22;59882;45.624;11.698;2023-07-24T01:35:26;25.20;70.10
66928;DHT22;59882;45.624;11.698;2023-07-24T01:37:53;25.20;70.00
66928;DHT22;59882;45.624;11.698;2023-07-24T01:40:19;25.10;70.10
66928;DHT22;59882;45.624;11.698;2023-07-24T01:42:46;25.10;70.30
66928;DHT22;59882;45.624;11.698;2023-07-24T01:45:12;25.00;70.40
66928;DHT22;59882;45.624;11.698;2023-07-24T01:47:38;25.00;70.30
66928;DHT22;59882;45.624;11.698;2023-07-24T01:50:03;25.00;70.30
66928;DHT22;59882;45.624;11.698;2023-07-24T01:52:29;25.00;70.60
66928;DHT22;59882;45.624;11.698;2023-07-24T01:54:55;24.90;70.50
66928;DHT22;59882;45.624;11.698;2023-07-24T01:57:20;24.90;70.50
66928;DHT22;59882;45.624;11.698;2023-07-24T01:59:46;24.90;70.20
66928;DHT22;59882;45.624;11.698;2023-07-24T02:02:11;24.90;70.20
66928;DHT22;59882;45.624;11.698;2023-07-24T02:04:37;24.90;70.10
66928;DHT22;59882;45.624;11.698;2023-07-24T02:07:03;24.90;69.90
66928;DHT22;59882;45.624;11.698;2023-07-24T02:09:29;24.90;69.70
66928;DHT22;59882;45.624;11.698;2023-07-24T02:11:54;24.90;69.50
66928;DHT22;59882;45.624;11.698;2023-07-24T02:14:20;24.90;69.20
66928;DHT22;59882;45.624;11.698;2023-07-24T02:16:46;24.80;69.20
66928;DHT22;59882;45.624;11.698;2023-07-24T02:19:11;24.70;69.00
66928;DHT22;59882;45.624;11.698;2023-07-24T02:21:37;24.70;69.00
66928;DHT22;59882;45.624;11.698;2023-07-24T02:24:03;24.70;69.00
66928;DHT22;59882;45.624;11.698;2023-07-24T02:26:29;24.70;69.10
66928;DHT22;59882;45.624;11.698;2023-07-24T02:28:54;24.60;69.30
66928;DHT22;59882;45.624;11.698;2023-07-24T02:31:20;24.60;69.60
66928;DHT22;59882;45.624;11.698;2023-07-24T02:33:46;24.60;69.80
66928;DHT22;59882;45.624;11.698;2023-07-24T02:36:11;24.60;69.70
66928;DHT22;59882;45.624;11.698;2023-07-24T02:38:37;24.60;69.80
66928;DHT22;59882;45.624;11.698;2023-07-24T02:41:03;24.60;69.80
66928;DHT22;59882;45.624;11.698;2023-07-24T02:43:28;24.70;70.00
66928;DHT22;59882;45.624;11.698;2023-07-24T02:45:54;24.70;70.10
66928;DHT22;59882;45.624;11.698;2023-07-24T02:48:19;24.70;69.90
66928;DHT22;59882;45.624;11.698;2023-07-24T02:50:47;24.70;70.00
66928;DHT22;59882;45.624;11.698;2023-07-24T02:53:13;24.80;69.80
66928;DHT22;59882;45.624;11.698;2023-07-24T02:55:42;24.70;69.80
66928;DHT22;59882;45.624;11.698;2023-07-24T02:58:08;24.60;70.30
66928;DHT22;59882;45.624;11.698;2023-07-24T03:00:34;24.60;70.30
66928;DHT22;59882;45.624;11.698;2023-07-24T03:03:00;24.50;70.40
66928;DHT22;59882;45.624;11.698;2023-07-24T03:05:25;24.50;70.60
66928;DHT22;59882;45.624;11.698;2023-07-24T03:07:51;24.50;70.40
66928;DHT22;59882;45.624;11.698;2023-07-24T03:10:16;24.40;70.40
66928;DHT22;59882;45.624;11.698;2023-07-24T03:12:42;24.40;70.50
66928;DHT22;59882;45.624;11.698;2023-07-24T03:15:08;24.40;70.60
66928;DHT22;59882;45.624;11.698;2023-07-24T03:17:34;24.40;70.60
66928;DHT22;59882;45.624;11.698;2023-07-24T03:20:12;24.40;70.70
66928;DHT22;59882;45.624;11.698;2023-07-24T03:22:38;24.40;70.60
66928;DHT22;59882;45.624;11.698;2023-07-24T03:25:05;24.40;70.80
66928;DHT22;59882;45.624;11.698;2023-07-24T03:27:31;24.40;70.70
66928;DHT22;59882;45.624;11.698;2023-07-24T03:29:57;24.40;70.70
66928;DHT22;59882;45.624;11.698;2023-07-24T03:32:22;24.40;70.60
66928;DHT22;59882;45.624;11.698;2023-07-24T03:34:48;24.40;70.60
66928;DHT22;59882;45.624;11.698;2023-07-24T03:37:13;24.40;70.50
66928;DHT22;59882;45.624;11.698;2023-07-24T03:39:39;24.50;70.50
66928;DHT22;59882;45.624;11.698;2023-07-24T03:42:04;24.50;70.40
66928;DHT22;59882;45.624;11.698;2023-07-24T03:44:30;24.40;70.30
66928;DHT22;59882;45.624;11.698;2023-07-24T03:46:56;24.40;70.10
66928;DHT22;59882;45.624;11.698;2023-07-24T03:49:21;24.40;70.10
66928;DHT22;59882;45.624;11.698;2023-07-24T03:51:48;24.50;70.00
66928;DHT22;59882;45.624;11.698;2023-07-24T03:54:13;24.50;69.90
66928;DHT22;59882;45.624;11.698;2023-07-24T03:56:39;24.40;69.80
66928;DHT22;59882;45.624;11.698;2023-07-24T03:59:06;24.40;69.60
66928;DHT22;59882;45.624;11.698;2023-07-24T04:01:31;24.50;69.40
66928;DHT22;59882;45.624;11.698;2023-07-24T04:03:58;24.50;69.40
66928;DHT22;59882;45.624;11.698;2023-07-24T04:06:24;24.60;69.30
66928;DHT22;59882;45.624;11.698;2023-07-24T04:08:50;24.60;69.00
66928;DHT22;59882;45.624;11.698;2023-07-24T04:11:15;24.60;68.90
66928;DHT22;59882;45.624;11.698;2023-07-24T04:13:41;24.60;68.80
66928;DHT22;59882;45.624;11.698;2023-07-24T04:16:06;24.70;68.80
66928;DHT22;59882;45.624;11.698;2023-07-24T04:18:32;24.70;68.80
66928;DHT22;59882;45.624;11.698;2023-07-24T04:20:58;24.70;69.00
66928;DHT22;59882;45.624;11.698;2023-07-24T04:23:24;24.70;68.90
66928;DHT22;59882;45.624;11.698;2023-07-24T04:25:50;24.80;68.90
66928;DHT22;59882;45.624;11.698;2023-07-24T04:28:15;24.80;69.10
66928;DHT22;59882;45.624;11.698;2023-07-24T04:30:41;24.80;69.30
66928;DHT22;59882;45.624;11.698;2023-07-24T04:33:07;24.90;69.30
66928;DHT22;59882;45.624;11.698;2023-07-24T04:35:32;24.90;69.40
66928;DHT22;59882;45.624;11.698;2023-07-24T04:37:59;24.90;69.70
66928;DHT22;59882;45.624;11.698;2023-07-24T04:40:24;25.00;69.90
66928;DHT22;59882;45.624;11.698;2023-07-24T04:42:50;25.00;70.40
66928;DHT22;59882;45.624;11.698;2023-07-24T04:45:15;25.10;70.60
66928;DHT22;59882;45.624;11.698;2023-07-24T04:47:41;25.10;70.50
66928;DHT22;59882;45.624;11.698;2023-07-24T04:50:07;25.10;70.90
66928;DHT22;59882;45.624;11.698;2023-07-24T04:52:33;25.20;70.70
66928;DHT22;59882;45.624;11.698;2023-07-24T04:54:59;25.20;70.50
66928;DHT22;59882;45.624;11.698;2023-07-24T04:57:24;25.30;70.40
66928;DHT22;59882;45.624;11.698;2023-07-24T04:59:50;25.30;70.40
66928;DHT22;59882;45.624;11.698;2023-07-24T05:02:16;25.40;70.40
66928;DHT22;59882;45.624;11.698;2023-07-24T05:04:41;25.40;70.20
66928;DHT22;59882;45.624;11.698;2023-07-24T05:07:07;25.40;70.00
66928;DHT22;59882;45.624;11.698;2023-07-24T05:09:32;25.40;70.00
66928;DHT22;59882;45.624;11.698;2023-07-24T05:11:58;25.40;70.00
66928;DHT22;59882;45.624;11.698;2023-07-24T05:14:24;25.40;70.00
66928;DHT22;59882;45.624;11.698;2023-07-24T05:16:49;25.40;70.10
66928;DHT22;59882;45.624;11.698;2023-07-24T05:19:15;25.40;70.40
66928;DHT22;59882;45.624;11.698;2023-07-24T05:21:40;25.40;70.20
66928;DHT22;59882;45.624;11.698;2023-07-24T05:24:06;25.40;70.30
66928;DHT22;59882;45.624;11.698;2023-07-24T05:26:32;25.40;70.30
66928;DHT22;59882;45.624;11.698;2023-07-24T05:28:57;25.40;70.20
66928;DHT22;59882;45.624;11.698;2023-07-24T05:31:23;25.40;70.20
66928;DHT22;59882;45.624;11.698;2023-07-24T05:33:49;25.40;70.20
66928;DHT22;59882;45.624;11.698;2023-07-24T05:36:14;25.40;70.50
66928;DHT22;59882;45.624;11.698;2023-07-24T05:38:40;25.40;70.80
66928;DHT22;59882;45.624;11.698;2023-07-24T05:41:05;25.40;71.10
66928;DHT22;59882;45.624;11.698;2023-07-24T05:43:31;25.50;70.90
66928;DHT22;59882;45.624;11.698;2023-07-24T05:45:58;25.50;70.90
66928;DHT22;59882;45.624;11.698;2023-07-24T05:48:24;25.60;70.50
66928;DHT22;59882;45.624;11.698;2023-07-24T05:50:50;25.60;70.90
66928;DHT22;59882;45.624;11.698;2023-07-24T05:53:16;25.70;70.50
66928;DHT22;59882;45.624;11.698;2023-07-24T05:55:42;25.80;70.70
66928;DHT22;59882;45.624;11.698;2023-07-24T05:58:09;25.90;70.60
66928;DHT22;59882;45.624;11.698;2023-07-24T06:00:35;26.10;70.70
66928;DHT22;59882;45.624;11.698;2023-07-24T06:03:02;26.20;70.50
66928;DHT22;59882;45.624;11.698;2023-07-24T06:05:28;26.30;70.60
66928;DHT22;59882;45.624;11.698;2023-07-24T06:07:54;26.40;70.40
66928;DHT22;59882;45.624;11.698;2023-07-24T06:10:20;26.40;70.40
66928;DHT22;59882;45.624;11.698;2023-07-24T06:12:45;26.50;70.50
66928;DHT22;59882;45.624;11.698;2023-07-24T06:15:11;26.60;70.70
66928;DHT22;59882;45.624;11.698;2023-07-24T06:17:36;26.70;70.70
66928;DHT22;59882;45.624;11.698;2023-07-24T06:20:02;26.60;70.70
66928;DHT22;59882;45.624;11.698;2023-07-24T06:22:28;26.60;70.70
66928;DHT22;59882;45.624;11.698;2023-07-24T06:24:53;26.60;71.00
66928;DHT22;59882;45.624;11.698;2023-07-24T06:27:19;26.80;71.00
66928;DHT22;59882;45.624;11.698;2023-07-24T06:29:45;26.80;70.80
66928;DHT22;59882;45.624;11.698;2023-07-24T06:32:10;26.80;70.70
66928;DHT22;59882;45.624;11.698;2023-07-24T06:34:36;26.90;70.70
66928;DHT22;59882;45.624;11.698;2023-07-24T06:37:01;26.90;70.90
66928;DHT22;59882;45.624;11.698;2023-07-24T06:39:27;26.90;70.90
66928;DHT22;59882;45.624;11.698;2023-07-24T06:41:54;27.00;70.90
66928;DHT22;59882;45.624;11.698;2023-07-24T06:44:20;27.10;70.70
66928;DHT22;59882;45.624;11.698;2023-07-24T06:46:46;27.10;70.60
66928;DHT22;59882;45.624;11.698;2023-07-24T06:49:12;27.10;70.60
66928;DHT22;59882;45.624;11.698;2023-07-24T06:51:38;27.10;70.20
66928;DHT22;59882;45.624;11.698;2023-07-24T06:54:06;27.10;70.10
66928;DHT22;59882;45.624;11.698;2023-07-24T06:56:32;27.20;70.00
66928;DHT22;59882;45.624;11.698;2023-07-24T06:58:58;27.20;69.90
66928;DHT22;59882;45.624;11.698;2023-07-24T07:01:23;27.20;70.00
66928;DHT22;59882;45.624;11.698;2023-07-24T07:03:49;27.20;70.00
66928;DHT22;59882;45.624;11.698;2023-07-24T07:06:15;27.20;70.20
66928;DHT22;59882;45.624;11.698;2023-07-24T07:08:41;27.20;70.00
66928;DHT22;59882;45.624;11.698;2023-07-24T07:11:06;27.10;69.90
66928;DHT22;59882;45.624;11.698;2023-07-24T07:13:32;27.00;70.10
66928;DHT22;59882;45.624;11.698;2023-07-24T07:15:57;26.90;70.40
66928;DHT22;59882;45.624;11.698;2023-07-24T07:18:23;26.90;70.60
66928;DHT22;59882;45.624;11.698;2023-07-24T07:20:50;26.90;70.70
66928;DHT22;59882;45.624;11.698;2023-07-24T07:23:16;27.00;70.80
66928;DHT22;59882;45.624;11.698;2023-07-24T07:25:42;27.10;70.80
66928;DHT22;59882;45.624;11.698;2023-07-24T07:28:15;27.20;70.80
66928;DHT22;59882;45.624;11.698;2023-07-24T07:30:41;27.30;70.60
66928;DHT22;59882;45.624;11.698;2023-07-24T07:33:07;27.40;70.50
66928;DHT22;59882;45.624;11.698;2023-07-24T07:35:33;27.40;70.30
66928;DHT22;59882;45.624;11.698;2023-07-24T07:38:00;27.40;70.40
66928;DHT22;59882;45.624;11.698;2023-07-24T07:40:26;27.50;70.30
66928;DHT22;59882;45.624;11.698;2023-07-24T07:42:53;27.60;70.10
66928;DHT22;59882;45.624;11.698;2023-07-24T07:45:18;27.60;70.00
66928;DHT22;59882;45.624;11.698;2023-07-24T07:47:44;27.70;69.80
66928;DHT22;59882;45.624;11.698;2023-07-24T07:50:10;27.70;69.70
66928;DHT22;59882;45.624;11.698;2023-07-24T07:52:36;27.80;69.50
66928;DHT22;59882;45.624;11.698;2023-07-24T07:55:02;27.90;69.30
66928;DHT22;59882;45.624;11.698;2023-07-24T07:57:27;27.90;69.10
66928;DHT22;59882;45.624;11.698;2023-07-24T07:59:53;27.90;68.90
66928;DHT22;59882;45.624;11.698;2023-07-24T08:02:18;27.90;68.70
66928;DHT22;59882;45.624;11.698;2023-07-24T08:04:44;27.90;68.60
66928;DHT22;59882;45.624;11.698;2023-07-24T08:07:10;27.90;68.60
66928;DHT22;59882;45.624;11.698;2023-07-24T08:09:35;27.90;68.70
66928;DHT22;59882;45.624;11.698;2023-07-24T08:12:03;28.00;68.60
66928;DHT22;59882;45.624;11.698;2023-07-24T08:14:30;27.90;68.60
66928;DHT22;59882;45.624;11.698;2023-07-24T08:16:56;27.80;69.10
66928;DHT22;59882;45.624;11.698;2023-07-24T08:19:21;27.80;70.20
66928;DHT22;59882;45.624;11.698;2023-07-24T08:21:47;27.70;73.30
66928;DHT22;59882;45.624;11.698;2023-07-24T08:24:13;27.80;71.50
66928;DHT22;59882;45.624;11.698;2023-07-24T08:26:38;27.90;71.40
66928;DHT22;59882;45.624;11.698;2023-07-24T08:29:05;27.90;71.50
66928;DHT22;59882;45.624;11.698;2023-07-24T08:31:31;28.00;71.30
66928;DHT22;59882;45.624;11.698;2023-07-24T08:33:57;28.00;71.00
66928;DHT22;59882;45.624;11.698;2023-07-24T08:36:22;28.20;70.50
66928;DHT22;59882;45.624;11.698;2023-07-24T08:38:48;28.20;69.50
66928;DHT22;59882;45.624;11.698;2023-07-24T08:41:14;28.30;69.30
66928;DHT22;59882;45.624;11.698;2023-07-24T08:43:42;28.40;69.10
66928;DHT22;59882;45.624;11.698;2023-07-24T08:46:08;28.40;68.90
66928;DHT22;59882;45.624;11.698;2023-07-24T08:48:39;28.40;68.70
66928;DHT22;59882;45.624;11.698;2023-07-24T08:51:07;28.40;68.50
66928;DHT22;59882;45.624;11.698;2023-07-24T08:53:34;28.40;68.00
66928;DHT22;59882;45.624;11.698;2023-07-24T08:56:09;28.30;68.20
66928;DHT22;59882;45.624;11.698;2023-07-24T08:58:35;28.40;68.10
66928;DHT22;59882;45.624;11.698;2023-07-24T09:01:01;28.40;68.20
66928;DHT22;59882;45.624;11.698;2023-07-24T09:03:28;28.40;68.20
66928;DHT22;59882;45.624;11.698;2023-07-24T09:05:54;28.40;68.10
66928;DHT22;59882;45.624;11.698;2023-07-24T09:08:37;28.30;68.10
66928;DHT22;59882;45.624;11.698;2023-07-24T09:11:04;28.40;68.10
66928;DHT22;59882;45.624;11.698;2023-07-24T09:13:31;28.40;68.10
66928;DHT22;59882;45.624;11.698;2023-07-24T09:15:57;28.40;68.70
66928;DHT22;59882;45.624;11.698;2023-07-24T09:18:23;28.50;68.70
66928;DHT22;59882;45.624;11.698;2023-07-24T09:20:49;28.60;68.60
66928;DHT22;59882;45.624;11.698;2023-07-24T09:23:15;28.60;68.30
66928;DHT22;59882;45.624;11.698;2023-07-24T09:25:42;28.70;68.10
66928;DHT22;59882;45.624;11.698;2023-07-24T09:28:15;28.70;67.70
66928;DHT22;59882;45.624;11.698;2023-07-24T09:30:42;28.70;67.90
66928;DHT22;59882;45.624;11.698;2023-07-24T09:33:09;28.60;68.40
66928;DHT22;59882;45.624;11.698;2023-07-24T09:35:35;28.70;67.90
66928;DHT22;59882;45.624;11.698;2023-07-24T09:38:07;28.70;67.90
66928;DHT22;59882;45.624;11.698;2023-07-24T09:40:46;28.70;67.80
66928;DHT22;59882;45.624;11.698;2023-07-24T09:45:42;28.90;68.10
66928;DHT22;59882;45.624;11.698;2023-07-24T09:48:08;29.00;67.20
66928;DHT22;59882;45.624;11.698;2023-07-24T09:50:37;29.10;67.20
66928;DHT22;59882;45.624;11.698;2023-07-24T09:53:05;29.20;65.90
66928;DHT22;59882;45.624;11.698;2023-07-24T09:55:37;29.20;64.60
66928;DHT22;59882;45.624;11.698;2023-07-24T09:58:06;29.30;65.10
66928;DHT22;59882;45.624;11.698;2023-07-24T10:00:32;29.30;65.40
66928;DHT22;59882;45.624;11.698;2023-07-24T10:02:58;29.30;65.20
66928;DHT22;59882;45.624;11.698;2023-07-24T10:05:24;29.40;65.00
66928;DHT22;59882;45.624;11.698;2023-07-24T10:07:50;29.40;64.30
66928;DHT22;59882;45.624;11.698;2023-07-24T10:10:17;29.40;64.70
66928;DHT22;59882;45.624;11.698;2023-07-24T10:12:43;29.40;64.60
66928;DHT22;59882;45.624;11.698;2023-07-24T10:15:10;29.30;64.70
66928;DHT22;59882;45.624;11.698;2023-07-24T10:17:40;29.10;64.80
66928;DHT22;59882;45.624;11.698;2023-07-24T10:20:07;29.10;65.00
66928;DHT22;59882;45.624;11.698;2023-07-24T10:22:34;29.10;65.20
66928;DHT22;59882;45.624;11.698;2023-07-24T10:24:59;29.00;65.50
66928;DHT22;59882;45.624;11.698;2023-07-24T10:27:25;29.00;65.80
66928;DHT22;59882;45.624;11.698;2023-07-24T10:30:06;29.20;66.10
66928;DHT22;59882;45.624;11.698;2023-07-24T10:32:33;29.40;65.80
66928;DHT22;59882;45.624;11.698;2023-07-24T10:35:08;29.50;66.00
66928;DHT22;59882;45.624;11.698;2023-07-24T10:37:35;29.60;67.00
66928;DHT22;59882;45.624;11.698;2023-07-24T10:40:02;29.60;66.90
66928;DHT22;59882;45.624;11.698;2023-07-24T10:42:29;29.70;66.00
66928;DHT22;59882;45.624;11.698;2023-07-24T10:45:05;29.70;65.40
66928;DHT22;59882;45.624;11.698;2023-07-24T10:47:31;29.60;65.40
66928;DHT22;59882;45.624;11.698;2023-07-24T10:49:57;29.50;65.90
66928;DHT22;59882;45.624;11.698;2023-07-24T10:52:33;29.50;65.80
66928;DHT22;59882;45.624;11.698;2023-07-24T10:55:03;29.50;65.90
66928;DHT22;59882;45.624;11.698;2023-07-24T10:57:32;29.50;66.00
66928;DHT22;59882;45.624;11.698;2023-07-24T10:59:59;29.50;66.30
66928;DHT22;59882;45.624;11.698;2023-07-24T11:02:24;29.60;66.30
66928;DHT22;59882;45.624;11.698;2023-07-24T11:04:50;29.60;66.60
66928;DHT22;59882;45.624;11.698;2023-07-24T11:07:16;29.60;65.90
66928;DHT22;59882;45.624;11.698;2023-07-24T11:09:42;29.60;65.90
66928;DHT22;59882;45.624;11.698;2023-07-24T11:12:13;29.50;65.60
66928;DHT22;59882;45.624;11.698;2023-07-24T11:14:49;29.50;66.00
66928;DHT22;59882;45.624;11.698;2023-07-24T11:17:15;29.50;66.20
66928;DHT22;59882;45.624;11.698;2023-07-24T11:19:40;29.40;66.60
66928;DHT22;59882;45.624;11.698;2023-07-24T11:22:07;29.40;66.70
66928;DHT22;59882;45.624;11.698;2023-07-24T11:24:32;29.50;66.20
66928;DHT22;59882;45.624;11.698;2023-07-24T11:26:58;29.50;65.50
66928;DHT22;59882;45.624;11.698;2023-07-24T11:29:24;29.60;65.50
66928;DHT22;59882;45.624;11.698;2023-07-24T11:31:54;29.60;66.50
66928;DHT22;59882;45.624;11.698;2023-07-24T11:34:20;29.70;65.90
66928;DHT22;59882;45.624;11.698;2023-07-24T11:36:46;29.80;65.50
66928;DHT22;59882;45.624;11.698;2023-07-24T11:39:12;30.00;65.40
66928;DHT22;59882;45.624;11.698;2023-07-24T11:41:37;30.10;64.70
66928;DHT22;59882;45.624;11.698;2023-07-24T11:44:03;30.20;65.00
66928;DHT22;59882;45.624;11.698;2023-07-24T11:46:32;30.20;64.50
66928;DHT22;59882;45.624;11.698;2023-07-24T11:48:57;30.10;62.80
66928;DHT22;59882;45.624;11.698;2023-07-24T11:51:25;30.00;63.00
66928;DHT22;59882;45.624;11.698;2023-07-24T11:53:51;29.90;63.20
66928;DHT22;59882;45.624;11.698;2023-07-24T11:56:19;29.80;62.70
66928;DHT22;59882;45.624;11.698;2023-07-24T11:58:45;29.60;62.40
66928;DHT22;59882;45.624;11.698;2023-07-24T12:01:12;29.60;63.00
66928;DHT22;59882;45.624;11.698;2023-07-24T12:03:39;29.60;63.80
66928;DHT22;59882;45.624;11.698;2023-07-24T12:06:05;29.80;64.50
66928;DHT22;59882;45.624;11.698;2023-07-24T12:08:39;30.00;64.30
66928;DHT22;59882;45.624;11.698;2023-07-24T12:11:04;30.00;64.00
66928;DHT22;59882;45.624;11.698;2023-07-24T12:13:30;30.00;63.90
66928;DHT22;59882;45.624;11.698;2023-07-24T12:15:57;29.90;63.20
66928;DHT22;59882;45.624;11.698;2023-07-24T12:18:23;29.70;63.50
66928;DHT22;59882;45.624;11.698;2023-07-24T12:20:48;29.70;63.70
66928;DHT22;59882;45.624;11.698;2023-07-24T12:23:14;29.60;64.00
66928;DHT22;59882;45.624;11.698;2023-07-24T12:25:39;29.60;64.00
66928;DHT22;59882;45.624;11.698;2023-07-24T12:28:05;29.70;63.40
66928;DHT22;59882;45.624;11.698;2023-07-24T12:30:31;29.90;64.00
66928;DHT22;59882;45.624;11.698;2023-07-24T12:32:56;30.10;63.40
66928;DHT22;59882;45.624;11.698;2023-07-24T12:35:23;30.40;62.90
66928;DHT22;59882;45.624;11.698;2023-07-24T12:37:49;30.70;63.00
66928;DHT22;59882;45.624;11.698;2023-07-24T12:40:14;31.00;62.40
66928;DHT22;59882;45.624;11.698;2023-07-24T12:42:40;31.30;59.90
66928;DHT22;59882;45.624;11.698;2023-07-24T12:45:06;31.50;59.10
66928;DHT22;59882;45.624;11.698;2023-07-24T12:47:32;31.60;57.20
66928;DHT22;59882;45.624;11.698;2023-07-24T12:49:58;31.70;57.30
66928;DHT22;59882;45.624;11.698;2023-07-24T12:52:25;31.70;57.40
66928;DHT22;59882;45.624;11.698;2023-07-24T12:54:51;31.60;57.60
66928;DHT22;59882;45.624;11.698;2023-07-24T12:57:16;31.60;57.60
66928;DHT22;59882;45.624;11.698;2023-07-24T12:59:42;31.70;55.60
66928;DHT22;59882;45.624;11.698;2023-07-24T13:02:07;31.50;56.60
66928;DHT22;59882;45.624;11.698;2023-07-24T13:04:33;31.40;55.70
66928;DHT22;59882;45.624;11.698;2023-07-24T13:06:59;31.30;56.40
66928;DHT22;59882;45.624;11.698;2023-07-24T13:09:25;31.00;56.50
66928;DHT22;59882;45.624;11.698;2023-07-24T13:11:51;30.90;57.10
66928;DHT22;59882;45.624;11.698;2023-07-24T13:14:20;30.60;57.70
66928;DHT22;59882;45.624;11.698;2023-07-24T13:16:45;30.60;58.20
66928;DHT22;59882;45.624;11.698;2023-07-24T13:19:11;30.40;58.60
66928;DHT22;59882;45.624;11.698;2023-07-24T13:21:37;30.40;59.10
66928;DHT22;59882;45.624;11.698;2023-07-24T13:24:02;30.40;59.30
66928;DHT22;59882;45.624;11.698;2023-07-24T13:26:28;30.30;59.70
66928;DHT22;59882;45.624;11.698;2023-07-24T13:28:54;30.20;59.60
66928;DHT22;59882;45.624;11.698;2023-07-24T13:31:20;30.20;59.00
66928;DHT22;59882;45.624;11.698;2023-07-24T13:33:46;30.20;58.60
66928;DHT22;59882;45.624;11.698;2023-07-24T13:36:12;30.10;58.30
66928;DHT22;59882;45.624;11.698;2023-07-24T13:38:39;30.00;58.20
66928;DHT22;59882;45.624;11.698;2023-07-24T13:41:06;29.90;58.20
66928;DHT22;59882;45.624;11.698;2023-07-24T13:43:33;29.80;58.60
66928;DHT22;59882;45.624;11.698;2023-07-24T13:45:58;29.70;59.10
66928;DHT22;59882;45.624;11.698;2023-07-24T13:48:26;29.70;60.20
66928;DHT22;59882;45.624;11.698;2023-07-24T13:50:52;29.50;60.40
66928;DHT22;59882;45.624;11.698;2023-07-24T13:53:18;29.50;61.00
66928;DHT22;59882;45.624;11.698;2023-07-24T13:55:43;29.40;61.40
66928;DHT22;59882;45.624;11.698;2023-07-24T13:58:09;29.10;63.10
66928;DHT22;59882;45.624;11.698;2023-07-24T14:00:35;28.80;64.50
66928;DHT22;59882;45.624;11.698;2023-07-24T14:03:01;28.60;64.40
66928;DHT22;59882;45.624;11.698;2023-07-24T14:05:26;28.50;64.60
66928;DHT22;59882;45.624;11.698;2023-07-24T14:07:52;28.40;66.80
66928;DHT22;59882;45.624;11.698;2023-07-24T14:10:18;28.30;67.00
66928;DHT22;59882;45.624;11.698;2023-07-24T14:12:43;28.30;67.60
66928;DHT22;59882;45.624;11.698;2023-07-24T14:15:09;28.00;66.00
66928;DHT22;59882;45.624;11.698;2023-07-24T14:17:35;27.90;65.80
66928;DHT22;59882;45.624;11.698;2023-07-24T14:20:02;27.90;66.50
66928;DHT22;59882;45.624;11.698;2023-07-24T14:22:28;27.90;66.30
66928;DHT22;59882;45.624;11.698;2023-07-24T14:24:53;27.70;65.80
66928;DHT22;59882;45.624;11.698;2023-07-24T14:27:19;27.40;66.10
66928;DHT22;59882;45.624;11.698;2023-07-24T14:29:45;27.70;66.30
66928;DHT22;59882;45.624;11.698;2023-07-24T14:32:10;28.50;64.20
66928;DHT22;59882;45.624;11.698;2023-07-24T14:34:36;29.30;61.20
66928;DHT22;59882;45.624;11.698;2023-07-24T14:37:01;29.50;59.10
66928;DHT22;59882;45.624;11.698;2023-07-24T14:39:27;29.50;58.70
66928;DHT22;59882;45.624;11.698;2023-07-24T14:41:53;29.40;59.10
66928;DHT22;59882;45.624;11.698;2023-07-24T14:44:18;30.10;58.60
66928;DHT22;59882;45.624;11.698;2023-07-24T14:46:44;31.20;55.00
66928;DHT22;59882;45.624;11.698;2023-07-24T14:49:10;32.10;54.30
66928;DHT22;59882;45.624;11.698;2023-07-24T14:51:35;33.20;51.80
66928;DHT22;59882;45.624;11.698;2023-07-24T14:54:01;33.90;49.70
66928;DHT22;59882;45.624;11.698;2023-07-24T14:56:26;34.30;49.50
66928;DHT22;59882;45.624;11.698;2023-07-24T14:58:52;34.60;48.10
66928;DHT22;59882;45.624;11.698;2023-07-24T15:01:18;34.80;48.20
66928;DHT22;59882;45.624;11.698;2023-07-24T15:03:43;35.30;45.90
66928;DHT22;59882;45.624;11.698;2023-07-24T15:06:09;35.60;44.10
66928;DHT22;59882;45.624;11.698;2023-07-24T15:08:35;35.90;43.60
66928;DHT22;59882;45.624;11.698;2023-07-24T15:11:01;36.00;43.50
66928;DHT22;59882;45.624;11.698;2023-07-24T15:13:27;36.10;44.10
66928;DHT22;59882;45.624;11.698;2023-07-24T15:15:52;36.00;44.00